| time (UTC) | temp C | wind direction | speed KPH | gust KPH | rain 1hr cm | rain 24hr cm | rain mn cm | humidity % | barometer mb |
| 20260507002434 | 23 | 187 | 17.7 | 20.9 | 0.00 | 0.00 | 0.00 | 45 | 1014.7 |
| 20260507001931 | 24 | 210 | 12.9 | 14.5 | 0.00 | 0.00 | 0.00 | 45 | 1014.7 |
| 20260507001428 | 24 | 200 | 12.9 | 14.5 | 0.00 | 0.00 | 0.00 | 44 | 1014.7 |
| 20260507000926 | 25 | 183 | 16.1 | 17.7 | 0.00 | 0.00 | 0.00 | 44 | 1014.5 |
| 20260507000421 | 25 | 203 | 17.7 | 19.3 | 0.00 | 0.00 | 0.00 | 43 | 1014.7 |
| 20260506235917 | 25 | 191 | 16.1 | 17.7 | 0.00 | 0.00 | 0.00 | 43 | 1014.7 |
| 20260506235415 | 25 | 202 | 8.0 | 16.1 | 0.00 | 0.00 | 0.00 | 43 | 1014.9 |
| 20260506234909 | 25 | 200 | 9.7 | 12.9 | 0.00 | 0.00 | 0.00 | 43 | 1014.5 |
| 20260506234408 | 24 | 211 | 12.9 | 17.7 | 0.00 | 0.00 | 0.00 | 44 | 1014.7 |
| 20260506233905 | 24 | 199 | 11.3 | 20.9 | 0.00 | 0.00 | 0.00 | 44 | 1014.5 |
| 20260506233401 | 24 | 209 | 16.1 | 19.3 | 0.00 | 0.00 | 0.00 | 44 | 1014.7 |
| 20260506232858 | 25 | 215 | 14.5 | 22.5 | 0.00 | 0.00 | 0.00 | 43 | 1014.5 |
| 20260506232354 | 25 | 209 | 14.5 | 19.3 | 0.00 | 0.00 | 0.00 | 43 | 1014.8 |
| 20260506231850 | 24 | 205 | 16.1 | 22.5 | 0.00 | 0.00 | 0.00 | 44 | 1014.4 |
| 20260506231348 | 25 | 197 | 17.7 | 20.9 | 0.00 | 0.00 | 0.00 | 43 | 1014.5 |
| 20260506230845 | 24 | 208 | 16.1 | 22.5 | 0.00 | 0.00 | 0.00 | 44 | 1014.8 |
| 20260506230342 | 24 | 202 | 16.1 | 24.1 | 0.00 | 0.00 | 0.00 | 43 | 1014.7 |
| 20260506225838 | 24 | 190 | 20.9 | 25.7 | 0.00 | 0.00 | 0.00 | 44 | 1014.7 |
| 20260506225336 | 25 | 200 | 14.5 | 22.5 | 0.00 | 0.00 | 0.00 | 43 | 1014.8 |
| 20260506224832 | 25 | 189 | 17.7 | 25.7 | 0.00 | 0.00 | 0.00 | 42 | 1014.8 |
| 20260506224330 | 25 | 186 | 12.9 | 20.9 | 0.00 | 0.00 | 0.00 | 41 | 1014.9 |
| 20260506223826 | 25 | 201 | 9.7 | 20.9 | 0.00 | 0.00 | 0.00 | 41 | 1014.9 |
| 20260506223321 | 25 | 190 | 11.3 | 19.3 | 0.00 | 0.00 | 0.00 | 41 | 1015.1 |
| 20260506222819 | 25 | 190 | 19.3 | 22.5 | 0.00 | 0.00 | 0.00 | 41 | 1015.0 |
| 20260506222314 | 25 | 194 | 16.1 | 22.5 | 0.00 | 0.00 | 0.00 | 40 | 1015.1 |
| 20260506221812 | 26 | 188 | 8.0 | 17.7 | 0.00 | 0.00 | 0.00 | 39 | 1015.1 |
| 20260506221309 | 25 | 196 | 12.9 | 20.9 | 0.00 | 0.00 | 0.00 | 40 | 1015.1 |
| 20260506220807 | 26 | 191 | 14.5 | 16.1 | 0.00 | 0.00 | 0.00 | 39 | 1015.4 |
| 20260506220308 | 25 | 216 | 14.5 | 22.5 | 0.00 | 0.00 | 0.00 | 40 | 1015.4 |
| 20260506215804 | 25 | 180 | 14.5 | 22.5 | 0.00 | 0.00 | 0.00 | 40 | 1015.4 |
| 20260506215300 | 25 | 176 | 6.4 | 17.7 | 0.00 | 0.00 | 0.00 | 40 | 1015.4 |
| 20260506214756 | 25 | 183 | 9.7 | 19.3 | 0.00 | 0.00 | 0.00 | 40 | 1015.6 |
| 20260506214253 | 25 | 180 | 20.9 | 24.1 | 0.00 | 0.00 | 0.00 | 38 | 1015.5 |
| 20260506213752 | 26 | 226 | 9.7 | 19.3 | 0.00 | 0.00 | 0.00 | 37 | 1015.6 |
| 20260506213248 | 25 | 231 | 11.3 | 17.7 | 0.00 | 0.00 | 0.00 | 38 | 1015.7 |
| 20260506212746 | 25 | 191 | 14.5 | 17.7 | 0.00 | 0.00 | 0.00 | 38 | 1015.7 |
| 20260506212241 | 25 | 197 | 20.9 | 24.1 | 0.00 | 0.00 | 0.00 | 37 | 1015.6 |
| 20260506211737 | 25 | 185 | 11.3 | 16.1 | 0.00 | 0.00 | 0.00 | 39 | 1015.8 |
| 20260506211233 | 25 | 197 | 9.7 | 16.1 | 0.00 | 0.00 | 0.00 | 37 | 1015.9 |
| 20260506210731 | 25 | 199 | 19.3 | 25.7 | 0.00 | 0.00 | 0.00 | 38 | 1015.9 |
| 20260506210227 | 25 | 188 | 14.5 | 19.3 | 0.00 | 0.00 | 0.00 | 38 | 1016.2 |
| 20260506205725 | 25 | 207 | 11.3 | 12.9 | 0.00 | 0.00 | 0.00 | 39 | 1015.9 |
| 20260506205220 | 24 | 222 | 16.1 | 25.7 | 0.00 | 0.00 | 0.00 | 40 | 1016.0 |
| 20260506204717 | 24 | 199 | 17.7 | 20.9 | 0.00 | 0.00 | 0.00 | 39 | 1016.0 |
| 20260506204214 | 23 | 208 | 11.3 | 24.1 | 0.00 | 0.00 | 0.00 | 40 | 1016.1 |
| 20260506203712 | 24 | 202 | 17.7 | 20.9 | 0.00 | 0.00 | 0.00 | 39 | 1016.2 |
| 20260506203209 | 24 | 208 | 12.9 | 19.3 | 0.00 | 0.00 | 0.00 | 40 | 1016.1 |
| 20260506202707 | 23 | 210 | 11.3 | 14.5 | 0.00 | 0.00 | 0.00 | 40 | 1016.2 |
| 20260506202203 | 23 | 196 | 17.7 | 24.1 | 0.00 | 0.00 | 0.00 | 40 | 1016.1 |
| 20260506201700 | 23 | 198 | 12.9 | 20.9 | 0.00 | 0.00 | 0.00 | 40 | 1016.3 |
| 20260506201156 | 23 | 190 | 9.7 | 20.9 | 0.00 | 0.00 | 0.00 | 41 | 1016.4 |
| 20260506200653 | 24 | 179 | 8.0 | 19.3 | 0.00 | 0.00 | 0.00 | 38 | 1016.4 |
| 20260506200150 | 23 | 222 | 14.5 | 22.5 | 0.00 | 0.00 | 0.00 | 40 | 1016.3 |
| 20260506195647 | 23 | 180 | 12.9 | 20.9 | 0.00 | 0.00 | 0.00 | 40 | 1016.5 |
| 20260506195143 | 23 | 201 | 12.9 | 16.1 | 0.00 | 0.00 | 0.00 | 40 | 1016.4 |
| 20260506194641 | 23 | 189 | 17.7 | 20.9 | 0.00 | 0.00 | 0.00 | 41 | 1016.5 |
| 20260506194136 | 23 | 204 | 12.9 | 20.9 | 0.00 | 0.00 | 0.00 | 41 | 1016.6 |
| 20260506193635 | 22 | 202 | 6.4 | 16.1 | 0.00 | 0.00 | 0.00 | 41 | 1016.8 |
| 20260506193131 | 23 | 188 | 14.5 | 17.7 | 0.00 | 0.00 | 0.00 | 41 | 1016.8 |
| 20260506192628 | 23 | 200 | 11.3 | 20.9 | 0.00 | 0.00 | 0.00 | 41 | 1016.6 |
| 20260506192124 | 22 | 170 | 12.9 | 20.9 | 0.00 | 0.00 | 0.00 | 41 | 1016.7 |
| 20260506191621 | 23 | 197 | 14.5 | 17.7 | 0.00 | 0.00 | 0.00 | 39 | 1016.7 |
| 20260506191117 | 23 | 203 | 11.3 | 14.5 | 0.00 | 0.00 | 0.00 | 41 | 1016.8 |
| 20260506190615 | 22 | 172 | 8.0 | 17.7 | 0.00 | 0.00 | 0.00 | 42 | 1016.8 |
| 20260506190111 | 23 | 201 | 6.4 | 12.9 | 0.00 | 0.00 | 0.00 | 41 | 1016.8 |
| 20260506185609 | 22 | 209 | 4.8 | 19.3 | 0.00 | 0.00 | 0.00 | 42 | 1017.0 |
| 20260506185104 | 22 | 197 | 9.7 | 14.5 | 0.00 | 0.00 | 0.00 | 41 | 1016.9 |
| 20260506184602 | 22 | 167 | 4.8 | 12.9 | 0.00 | 0.00 | 0.00 | 42 | 1017.0 |
| 20260506184059 | 22 | 152 | 8.0 | 12.9 | 0.00 | 0.00 | 0.00 | 41 | 1017.2 |
| 20260506183555 | 22 | 206 | 14.5 | 16.1 | 0.00 | 0.00 | 0.00 | 42 | 1017.2 |
| 20260506183052 | 21 | 172 | 9.7 | 12.9 | 0.00 | 0.00 | 0.00 | 42 | 1017.4 |
| 20260506182549 | 21 | 196 | 3.2 | 17.7 | 0.00 | 0.00 | 0.00 | 42 | 1017.5 |
| 20260506182046 | 21 | 227 | 3.2 | 12.9 | 0.00 | 0.00 | 0.00 | 43 | 1017.5 |
| 20260506181544 | 21 | 192 | 4.8 | 11.3 | 0.00 | 0.00 | 0.00 | 42 | 1017.5 |
| 20260506181041 | 21 | 155 | 1.6 | 9.7 | 0.00 | 0.00 | 0.00 | 43 | 1017.4 |
| 20260506180537 | 21 | 217 | 9.7 | 11.3 | 0.00 | 0.00 | 0.00 | 44 | 1017.7 |
| 20260506180034 | 21 | 216 | 1.6 | 8.0 | 0.00 | 0.00 | 0.00 | 45 | 1017.5 |
| 20260506175531 | 20 | 167 | 9.7 | 9.7 | 0.00 | 0.00 | 0.00 | 45 | 1017.7 |
| 20260506175027 | 20 | 189 | 9.7 | 9.7 | 0.00 | 0.00 | 0.00 | 45 | 1017.5 |
| 20260506174526 | 20 | 172 | 6.4 | 16.1 | 0.00 | 0.00 | 0.00 | 46 | 1017.5 |
| 20260506174021 | 19 | 164 | 6.4 | 14.5 | 0.00 | 0.00 | 0.00 | 47 | 1017.8 |
| 20260506173519 | 20 | 166 | 3.2 | 12.9 | 0.00 | 0.00 | 0.00 | 46 | 1017.6 |
| 20260506173016 | 18 | 179 | 6.4 | 9.7 | 0.00 | 0.00 | 0.00 | 48 | 1017.6 |
| 20260506172514 | 18 | 357 | 1.6 | 6.4 | 0.00 | 0.00 | 0.00 | 50 | 1017.7 |
| 20260506172009 | 18 | 196 | 6.4 | 14.5 | 0.00 | 0.00 | 0.00 | 49 | 1017.8 |
| 20260506171507 | 18 | 184 | 8.0 | 11.3 | 0.00 | 0.00 | 0.00 | 50 | 1017.8 |
| 20260506171005 | 18 | 89 | 1.6 | 11.3 | 0.00 | 0.00 | 0.00 | 52 | 1017.8 |
| 20260506170502 | 17 | 166 | 0.0 | 9.7 | 0.00 | 0.00 | 0.00 | 53 | 1017.7 |
| 20260506165959 | 17 | 204 | 6.4 | 9.7 | 0.00 | 0.00 | 0.00 | 53 | 1017.8 |
| 20260506165458 | 17 | 207 | 8.0 | 12.9 | 0.00 | 0.00 | 0.00 | 54 | 1017.8 |
| 20260506164954 | 16 | 214 | 11.3 | 12.9 | 0.00 | 0.00 | 0.00 | 56 | 1017.9 |
| 20260506164450 | 16 | 216 | 4.8 | 8.0 | 0.00 | 0.00 | 0.00 | 56 | 1017.7 |
| 20260506163948 | 16 | 185 | 4.8 | 9.7 | 0.00 | 0.00 | 0.00 | 56 | 1017.9 |
| 20260506163443 | 15 | 198 | 3.2 | 6.4 | 0.00 | 0.00 | 0.00 | 58 | 1018.0 |
| 20260506162938 | 15 | 231 | 4.8 | 6.4 | 0.00 | 0.00 | 0.00 | 59 | 1018.0 |
| 20260506162436 | 15 | 212 | 6.4 | 9.7 | 0.00 | 0.00 | 0.00 | 61 | 1018.0 |
| 20260506161933 | 15 | 192 | 3.2 | 9.7 | 0.00 | 0.00 | 0.00 | 62 | 1018.0 |
| 20260506161431 | 15 | 180 | 3.2 | 4.8 | 0.00 | 0.00 | 0.00 | 63 | 1018.1 |
| 20260506160928 | 15 | 156 | 3.2 | 6.4 | 0.00 | 0.00 | 0.00 | 65 | 1018.0 |
| 20260506160426 | 14 | 161 | 3.2 | 6.4 | 0.00 | 0.00 | 0.00 | 66 | 1018.1 |
| 20260506155924 | 13 | 1 | 1.6 | 3.2 | 0.00 | 0.00 | 0.00 | 68 | 1017.9 |
| 20260506155421 | 13 | 154 | 1.6 | 4.8 | 0.00 | 0.00 | 0.00 | 68 | 1018.0 |
| 20260506153542 | 12 | 216 | 0.0 | 4.8 | 0.00 | 0.00 | 0.00 | 72 | 1018.1 |
| 20260506153039 | 12 | 144 | 0.0 | 3.2 | 0.00 | 0.00 | 0.00 | 74 | 1018.1 |
| 20260506152536 | 12 | 192 | 0.0 | 3.2 | 0.00 | 0.00 | 0.00 | 76 | 1018.1 |
| 20260506152035 | 11 | 185 | 0.0 | 3.2 | 0.00 | 0.00 | 0.00 | 78 | 1018.1 |
| 20260506151532 | 11 | 232 | 3.2 | 3.2 | 0.00 | 0.00 | 0.00 | 78 | 1018.2 |
| 20260506151029 | 11 | 207 | 0.0 | 1.6 | 0.00 | 0.00 | 0.00 | 79 | 1018.1 |
| 20260506150525 | 10 | 138 | 1.6 | 3.2 | 0.00 | 0.00 | 0.00 | 80 | 1018.3 |
| 20260506150023 | 10 | 135 | 0.0 | 3.2 | 0.00 | 0.00 | 0.00 | 81 | 1018.2 |
| 20260506145519 | 10 | 138 | 0.0 | 3.2 | 0.00 | 0.00 | 0.00 | 81 | 1018.2 |
| 20260506145017 | 10 | 54 | 0.0 | 1.6 | 0.00 | 0.00 | 0.00 | 82 | 1018.2 |
| 20260506144513 | 10 | 128 | 0.0 | 1.6 | 0.00 | 0.00 | 0.00 | 84 | 1018.1 |
| 20260506144011 | 9 | 89 | 0.0 | 1.6 | 0.00 | 0.00 | 0.00 | 84 | 1018.1 |
| 20260506143508 | 10 | 150 | 0.0 | 3.2 | 0.00 | 0.00 | 0.00 | 84 | 1018.2 |
| 20260506143007 | 9 | 111 | 0.0 | 0.0 | 0.00 | 0.00 | 0.00 | 85 | 1018.3 |
| 20260506142504 | 10 | 7 | 0.0 | 0.0 | 0.00 | 0.00 | 0.00 | 85 | 1018.2 |
| 20260506142002 | 9 | 36 | 0.0 | 0.0 | 0.00 | 0.00 | 0.00 | 85 | 1018.1 |
| 20260506141459 | 9 | 152 | 0.0 | 3.2 | 0.00 | 0.00 | 0.00 | 85 | 1018.2 |
| 20260506140958 | 9 | 2 | 0.0 | 0.0 | 0.00 | 0.00 | 0.00 | 85 | 1018.3 |
| 20260506140454 | 8 | 1 | 1.6 | 4.8 | 0.00 | 0.00 | 0.00 | 86 | 1018.0 |
| 20260506135951 | 8 | 344 | 3.2 | 4.8 | 0.00 | 0.00 | 0.00 | 86 | 1018.1 |
| 20260506135448 | 8 | 339 | 3.2 | 4.8 | 0.00 | 0.00 | 0.00 | 87 | 1018.1 |
| 20260506134944 | 8 | 290 | 0.0 | 1.6 | 0.00 | 0.00 | 0.00 | 87 | 1018.0 |
| 20260506134440 | 8 | 352 | 3.2 | 3.2 | 0.00 | 0.00 | 0.00 | 89 | 1018.0 |
| 20260506133937 | 8 | 311 | 1.6 | 1.6 | 0.00 | 0.00 | 0.00 | 88 | 1018.1 |
| 20260506133435 | 8 | 339 | 4.8 | 4.8 | 0.00 | 0.00 | 0.00 | 88 | 1018.0 |
| 20260506132931 | 8 | 334 | 3.2 | 3.2 | 0.00 | 0.00 | 0.00 | 88 | 1018.0 |
| 20260506132428 | 8 | 284 | 1.6 | 3.2 | 0.00 | 0.00 | 0.00 | 88 | 1017.9 |
| 20260506131926 | 8 | 352 | 3.2 | 4.8 | 0.00 | 0.00 | 0.00 | 87 | 1017.8 |
| 20260506131422 | 8 | 339 | 4.8 | 6.4 | 0.00 | 0.00 | 0.00 | 87 | 1017.8 |
| 20260506130919 | 7 | 339 | 3.2 | 6.4 | 0.00 | 0.00 | 0.00 | 88 | 1017.8 |
| 20260506130415 | 7 | 337 | 6.4 | 8.0 | 0.00 | 0.00 | 0.00 | 88 | 1017.6 |
| 20260506125914 | 7 | 340 | 6.4 | 6.4 | 0.00 | 0.00 | 0.00 | 87 | 1017.6 |
| 20260506125412 | 7 | 339 | 4.8 | 6.4 | 0.00 | 0.00 | 0.00 | 88 | 1017.9 |
| 20260506124910 | 7 | 338 | 3.2 | 6.4 | 0.00 | 0.00 | 0.00 | 88 | 1017.5 |
| 20260506124407 | 7 | 333 | 6.4 | 8.0 | 0.00 | 0.00 | 0.00 | 88 | 1017.7 |
| 20260506123905 | 7 | 338 | 3.2 | 4.8 | 0.00 | 0.00 | 0.00 | 90 | 1017.6 |
| 20260506123402 | 7 | 343 | 4.8 | 6.4 | 0.00 | 0.00 | 0.00 | 90 | 1017.5 |
| 20260506122900 | 7 | 336 | 3.2 | 3.2 | 0.00 | 0.00 | 0.00 | 90 | 1017.4 |
| 20260506122356 | 7 | 334 | 3.2 | 4.8 | 0.00 | 0.00 | 0.00 | 91 | 1017.5 |
| 20260506121855 | 7 | 328 | 4.8 | 4.8 | 0.00 | 0.00 | 0.00 | 90 | 1017.5 |
| 20260506121351 | 7 | 337 | 3.2 | 4.8 | 0.00 | 0.00 | 0.00 | 90 | 1017.5 |
| 20260506120848 | 7 | 338 | 4.8 | 4.8 | 0.00 | 0.00 | 0.00 | 89 | 1017.6 |
| 20260506120346 | 7 | 351 | 3.2 | 4.8 | 0.00 | 0.00 | 0.00 | 89 | 1017.3 |
| 20260506115843 | 7 | 342 | 3.2 | 3.2 | 0.00 | 0.00 | 0.00 | 88 | 1017.4 |
| 20260506115341 | 7 | 338 | 3.2 | 3.2 | 0.00 | 0.00 | 0.00 | 89 | 1017.3 |
| 20260506114839 | 7 | 331 | 3.2 | 3.2 | 0.00 | 0.00 | 0.00 | 89 | 1017.5 |
| 20260506114336 | 7 | 328 | 1.6 | 3.2 | 0.00 | 0.00 | 0.00 | 88 | 1017.3 |
| 20260506113835 | 8 | 335 | 3.2 | 6.4 | 0.00 | 0.00 | 0.00 | 88 | 1017.3 |
| 20260506113332 | 8 | 336 | 3.2 | 4.8 | 0.00 | 0.00 | 0.00 | 88 | 1017.2 |
| 20260506112828 | 8 | 334 | 3.2 | 4.8 | 0.00 | 0.00 | 0.00 | 88 | 1017.3 |
| 20260506112326 | 8 | 339 | 3.2 | 6.4 | 0.00 | 0.00 | 0.00 | 88 | 1017.2 |
| 20260506111823 | 8 | 333 | 3.2 | 3.2 | 0.00 | 0.00 | 0.00 | 89 | 1017.3 |
| 20260506111321 | 8 | 340 | 3.2 | 3.2 | 0.00 | 0.00 | 0.00 | 88 | 1017.3 |
| 20260506110818 | 8 | 334 | 3.2 | 4.8 | 0.00 | 0.00 | 0.00 | 89 | 1017.3 |
| 20260506110315 | 8 | 328 | 3.2 | 3.2 | 0.00 | 0.00 | 0.00 | 87 | 1017.3 |
| 20260506105812 | 8 | 194 | 0.0 | 3.2 | 0.00 | 0.00 | 0.00 | 89 | 1017.2 |
| 20260506105309 | 8 | 354 | 1.6 | 3.2 | 0.00 | 0.00 | 0.00 | 89 | 1017.0 |
| 20260506104806 | 8 | 349 | 3.2 | 3.2 | 0.00 | 0.00 | 0.00 | 88 | 1016.9 |
| 20260506104304 | 8 | 341 | 0.0 | 0.0 | 0.00 | 0.00 | 0.00 | 87 | 1017.0 |
| 20260506103801 | 8 | 344 | 3.2 | 4.8 | 0.00 | 0.00 | 0.00 | 86 | 1017.3 |
| 20260506103259 | 8 | 352 | 3.2 | 6.4 | 0.00 | 0.00 | 0.00 | 86 | 1017.0 |
| 20260506102756 | 8 | 345 | 3.2 | 6.4 | 0.00 | 0.00 | 0.00 | 87 | 1017.0 |
| 20260506102254 | 8 | 354 | 3.2 | 6.4 | 0.00 | 0.00 | 0.00 | 86 | 1017.4 |
| 20260506101750 | 8 | 349 | 1.6 | 3.2 | 0.00 | 0.00 | 0.00 | 87 | 1017.2 |
| 20260506101247 | 8 | 1 | 3.2 | 6.4 | 0.00 | 0.00 | 0.00 | 86 | 1017.2 |
| 20260506100745 | 8 | 359 | 3.2 | 6.4 | 0.00 | 0.00 | 0.00 | 87 | 1017.0 |
| 20260506100243 | 8 | 354 | 3.2 | 4.8 | 0.00 | 0.00 | 0.00 | 87 | 1017.3 |
| 20260506095741 | 8 | 357 | 3.2 | 4.8 | 0.00 | 0.00 | 0.00 | 87 | 1017.2 |
| 20260506095238 | 8 | 358 | 1.6 | 3.2 | 0.00 | 0.00 | 0.00 | 88 | 1017.2 |
| 20260506094734 | 8 | 335 | 3.2 | 3.2 | 0.00 | 0.00 | 0.00 | 88 | 1017.3 |
| 20260506094233 | 8 | 346 | 1.6 | 3.2 | 0.00 | 0.00 | 0.00 | 87 | 1017.3 |
| 20260506093731 | 8 | 352 | 0.0 | 3.2 | 0.00 | 0.00 | 0.00 | 87 | 1017.4 |
| 20260506093228 | 9 | 5 | 3.2 | 3.2 | 0.00 | 0.00 | 0.00 | 85 | 1017.2 |
| 20260506092726 | 9 | 325 | 1.6 | 3.2 | 0.00 | 0.00 | 0.00 | 85 | 1017.2 |
| 20260506092223 | 9 | 2 | 3.2 | 3.2 | 0.00 | 0.00 | 0.00 | 85 | 1017.4 |
| 20260506091720 | 9 | 354 | 3.2 | 3.2 | 0.00 | 0.00 | 0.00 | 85 | 1017.4 |
| 20260506091218 | 9 | 6 | 3.2 | 6.4 | 0.00 | 0.00 | 0.00 | 85 | 1017.5 |
| 20260506090716 | 9 | 6 | 3.2 | 3.2 | 0.00 | 0.00 | 0.00 | 85 | 1017.3 |
| 20260506090212 | 9 | 335 | 1.6 | 3.2 | 0.00 | 0.00 | 0.00 | 87 | 1017.3 |
| 20260506085709 | 9 | 355 | 3.2 | 3.2 | 0.00 | 0.00 | 0.00 | 87 | 1017.3 |
| 20260506085205 | 9 | 2 | 3.2 | 3.2 | 0.00 | 0.00 | 0.00 | 86 | 1017.2 |
| 20260506084702 | 10 | 2 | 3.2 | 3.2 | 0.00 | 0.00 | 0.00 | 85 | 1017.2 |
| 20260506084158 | 10 | 350 | 1.6 | 3.2 | 0.00 | 0.00 | 0.00 | 83 | 1017.3 |
| 20260506083655 | 10 | 353 | 3.2 | 4.8 | 0.00 | 0.00 | 0.00 | 84 | 1017.5 |
| 20260506083153 | 9 | 353 | 1.6 | 3.2 | 0.00 | 0.00 | 0.00 | 84 | 1017.5 |
| 20260506082651 | 10 | 336 | 1.6 | 3.2 | 0.00 | 0.00 | 0.00 | 85 | 1017.3 |
| 20260506082150 | 10 | 34 | 0.0 | 1.6 | 0.00 | 0.00 | 0.00 | 84 | 1017.5 |
| 20260506081649 | 10 | 10 | 1.6 | 3.2 | 0.00 | 0.00 | 0.00 | 84 | 1017.3 |
| 20260506081146 | 10 | 349 | 3.2 | 4.8 | 0.00 | 0.00 | 0.00 | 84 | 1017.5 |
| 20260506080644 | 10 | 11 | 3.2 | 4.8 | 0.00 | 0.00 | 0.00 | 83 | 1017.4 |
| 20260506080140 | 10 | 0 | 3.2 | 4.8 | 0.00 | 0.00 | 0.00 | 82 | 1017.6 |
| 20260506073124 | 10 | 12 | 3.2 | 4.8 | 0.00 | 0.00 | 0.00 | 81 | 1017.4 |
| 20260506072621 | 10 | 1 | 3.2 | 6.4 | 0.00 | 0.00 | 0.00 | 80 | 1017.5 |
| 20260506072119 | 10 | 358 | 3.2 | 3.2 | 0.00 | 0.00 | 0.00 | 82 | 1017.5 |
| 20260506071617 | 10 | 357 | 0.0 | 1.6 | 0.00 | 0.00 | 0.00 | 81 | 1017.4 |
| 20260506071114 | 10 | 12 | 1.6 | 4.8 | 0.00 | 0.00 | 0.00 | 80 | 1017.2 |
| 20260506070611 | 10 | 353 | 3.2 | 4.8 | 0.00 | 0.00 | 0.00 | 80 | 1017.2 |
| 20260506070108 | 10 | 13 | 1.6 | 3.2 | 0.00 | 0.00 | 0.00 | 80 | 1016.9 |
| 20260506062045 | 11 | 335 | 0.0 | 3.2 | 0.00 | 0.05 | 0.05 | 81 | 1016.4 |
| 20260506061541 | 11 | 346 | 3.2 | 3.2 | 0.00 | 0.05 | 0.05 | 80 | 1016.5 |
| 20260506061038 | 11 | 359 | 3.2 | 3.2 | 0.00 | 0.05 | 0.05 | 81 | 1016.3 |
| 20260506060537 | 11 | 21 | 1.6 | 3.2 | 0.00 | 0.05 | 0.05 | 81 | 1016.5 |
| 20260506051006 | 11 | 0 | 3.2 | 4.8 | 0.00 | 0.05 | 0.05 | 76 | 1016.1 |
| 20260506050503 | 12 | 346 | 3.2 | 3.2 | 0.00 | 0.05 | 0.05 | 78 | 1016.2 |
| 20260506044954 | 12 | 349 | 3.2 | 3.2 | 0.00 | 0.05 | 0.05 | 77 | 1015.9 |
| 20260506044452 | 12 | 349 | 3.2 | 3.2 | 0.00 | 0.05 | 0.05 | 76 | 1015.8 |
| 20260506043948 | 12 | 356 | 3.2 | 4.8 | 0.00 | 0.05 | 0.05 | 76 | 1015.7 |
| 20260506043445 | 12 | 345 | 3.2 | 3.2 | 0.00 | 0.05 | 0.05 | 75 | 1015.6 |
| 20260506042943 | 12 | 348 | 3.2 | 6.4 | 0.00 | 0.05 | 0.05 | 74 | 1015.5 |
| 20260506042443 | 12 | 341 | 4.8 | 4.8 | 0.00 | 0.05 | 0.05 | 74 | 1015.6 |
| 20260506041940 | 12 | 343 | 3.2 | 3.2 | 0.00 | 0.05 | 0.05 | 74 | 1015.3 |
| 20260506041438 | 12 | 344 | 3.2 | 3.2 | 0.00 | 0.05 | 0.05 | 74 | 1015.2 |
| 20260506040935 | 13 | 353 | 1.6 | 4.8 | 0.00 | 0.05 | 0.05 | 73 | 1015.2 |
| 20260506040432 | 13 | 324 | 3.2 | 3.2 | 0.00 | 0.05 | 0.05 | 73 | 1015.1 |
| 20260506035928 | 13 | 319 | 3.2 | 3.2 | 0.00 | 0.05 | 0.05 | 73 | 1015.2 |
| 20260506035426 | 13 | 355 | 3.2 | 4.8 | 0.00 | 0.05 | 0.05 | 72 | 1015.1 |
| 20260506034922 | 13 | 242 | 0.0 | 3.2 | 0.00 | 0.05 | 0.05 | 73 | 1015.0 |
| 20260506034420 | 13 | 343 | 3.2 | 3.2 | 0.00 | 0.05 | 0.05 | 73 | 1015.0 |
| 20260506033916 | 13 | 331 | 3.2 | 4.8 | 0.00 | 0.05 | 0.05 | 72 | 1014.9 |
| 20260506033414 | 13 | 341 | 3.2 | 4.8 | 0.00 | 0.05 | 0.05 | 72 | 1014.9 |
| 20260506032911 | 13 | 329 | 3.2 | 3.2 | 0.00 | 0.05 | 0.05 | 71 | 1014.8 |
| 20260506032408 | 13 | 336 | 3.2 | 4.8 | 0.00 | 0.05 | 0.05 | 71 | 1014.8 |
| 20260506031904 | 13 | 326 | 3.2 | 4.8 | 0.00 | 0.05 | 0.05 | 70 | 1014.7 |
| 20260506031401 | 13 | 264 | 1.6 | 3.2 | 0.00 | 0.05 | 0.05 | 70 | 1014.7 |
| 20260506030859 | 13 | 315 | 0.0 | 3.2 | 0.00 | 0.05 | 0.05 | 69 | 1014.4 |
| 20260506030357 | 14 | 292 | 1.6 | 3.2 | 0.00 | 0.05 | 0.05 | 69 | 1014.3 |
| 20260506025853 | 14 | 293 | 3.2 | 3.2 | 0.00 | 0.05 | 0.05 | 69 | 1014.1 |
| 20260506025350 | 14 | 258 | 3.2 | 3.2 | 0.00 | 0.05 | 0.05 | 69 | 1014.2 |
| 20260506024847 | 14 | 353 | 1.6 | 3.2 | 0.00 | 0.05 | 0.05 | 69 | 1014.1 |
| 20260506024344 | 14 | 321 | 1.6 | 3.2 | 0.00 | 0.05 | 0.05 | 68 | 1014.0 |
| 20260506023840 | 14 | 276 | 4.8 | 8.0 | 0.00 | 0.05 | 0.05 | 67 | 1014.0 |
| 20260506023337 | 14 | 292 | 3.2 | 8.0 | 0.00 | 0.05 | 0.05 | 67 | 1014.0 |
| 20260506022834 | 15 | 217 | 9.7 | 14.5 | 0.00 | 0.05 | 0.05 | 66 | 1013.7 |
| 20260506022332 | 15 | 218 | 8.0 | 9.7 | 0.00 | 0.05 | 0.05 | 66 | 1013.7 |
| 20260506021830 | 15 | 216 | 6.4 | 12.9 | 0.00 | 0.05 | 0.05 | 65 | 1013.8 |
| 20260506021326 | 15 | 206 | 8.0 | 11.3 | 0.00 | 0.05 | 0.05 | 65 | 1013.7 |
| 20260506020823 | 15 | 185 | 11.3 | 20.9 | 0.00 | 0.05 | 0.05 | 64 | 1013.7 |
| 20260506020321 | 15 | 193 | 14.5 | 24.1 | 0.00 | 0.05 | 0.05 | 64 | 1013.5 |
| 20260506015818 | 15 | 213 | 16.1 | 24.1 | 0.00 | 0.05 | 0.05 | 63 | 1013.5 |
| 20260506015316 | 16 | 194 | 19.3 | 24.1 | 0.00 | 0.05 | 0.05 | 63 | 1013.4 |
| 20260506014812 | 16 | 188 | 9.7 | 25.7 | 0.00 | 0.05 | 0.05 | 62 | 1013.3 |
| 20260506014309 | 16 | 212 | 19.3 | 22.5 | 0.00 | 0.05 | 0.05 | 61 | 1013.3 |
| 20260506013806 | 16 | 197 | 24.1 | 27.4 | 0.00 | 0.05 | 0.05 | 61 | 1013.2 |
| 20260506013303 | 16 | 180 | 16.1 | 24.1 | 0.00 | 0.05 | 0.05 | 61 | 1013.1 |
| 20260506012759 | 16 | 187 | 19.3 | 19.3 | 0.00 | 0.05 | 0.05 | 60 | 1013.3 |
| 20260506012256 | 16 | 184 | 14.5 | 20.9 | 0.00 | 0.05 | 0.05 | 61 | 1013.2 |
| 20260506011754 | 16 | 192 | 12.9 | 20.9 | 0.00 | 0.05 | 0.05 | 60 | 1013.3 |
| 20260506011250 | 16 | 191 | 11.3 | 19.3 | 0.00 | 0.05 | 0.05 | 59 | 1013.4 |
| 20260506010748 | 16 | 182 | 11.3 | 17.7 | 0.00 | 0.05 | 0.05 | 58 | 1013.1 |
| 20260506010245 | 17 | 198 | 11.3 | 20.9 | 0.00 | 0.05 | 0.05 | 57 | 1013.3 |
| 20260506005742 | 17 | 197 | 14.5 | 17.7 | 0.00 | 0.05 | 0.05 | 58 | 1013.2 |
| 20260506005239 | 17 | 218 | 14.5 | 19.3 | 0.00 | 0.05 | 0.05 | 58 | 1013.2 |
| 20260506004735 | 17 | 193 | 14.5 | 20.9 | 0.00 | 0.05 | 0.05 | 57 | 1013.0 |
| 20260506004233 | 17 | 191 | 8.0 | 14.5 | 0.00 | 0.05 | 0.05 | 57 | 1013.1 |
| 20260506003728 | 17 | 217 | 9.7 | 22.5 | 0.00 | 0.05 | 0.05 | 57 | 1013.1 |
| 20260506003225 | 17 | 181 | 14.5 | 25.7 | 0.00 | 0.05 | 0.05 | 57 | 1013.1 |
| 20260506002721 | 17 | 188 | 14.5 | 25.7 | 0.00 | 0.05 | 0.05 | 56 | 1012.9 |